sensor_id;sensor_type;location;lat;lon;timestamp;temperature;humidity
50162;DHT22;36061;48.116;11.612;2022-09-12T00:00:00;12.60;99.90
50162;DHT22;36061;48.116;11.612;2022-09-12T00:02:26;12.60;99.90
50162;DHT22;36061;48.116;11.612;2022-09-12T00:04:52;12.60;99.90
50162;DHT22;36061;48.116;11.612;2022-09-12T00:07:18;12.60;99.90
50162;DHT22;36061;48.116;11.612;2022-09-12T00:09:43;12.60;99.90
50162;DHT22;36061;48.116;11.612;2022-09-12T00:12:09;12.60;99.90
50162;DHT22;36061;48.116;11.612;2022-09-12T00:14:35;12.60;99.90
50162;DHT22;36061;48.116;11.612;2022-09-12T00:17:01;12.60;99.90
50162;DHT22;36061;48.116;11.612;2022-09-12T00:19:27;12.50;99.90
50162;DHT22;36061;48.116;11.612;2022-09-12T00:21:54;12.50;99.90
50162;DHT22;36061;48.116;11.612;2022-09-12T00:24:20;12.50;99.90
50162;DHT22;36061;48.116;11.612;2022-09-12T00:26:46;12.50;99.90
50162;DHT22;36061;48.116;11.612;2022-09-12T00:29:17;12.50;99.90
50162;DHT22;36061;48.116;11.612;2022-09-12T00:31:44;12.50;99.90
50162;DHT22;36061;48.116;11.612;2022-09-12T00:34:10;12.40;99.90
50162;DHT22;36061;48.116;11.612;2022-09-12T00:36:36;12.40;99.90
50162;DHT22;36061;48.116;11.612;2022-09-12T00:39:02;12.40;99.90
50162;DHT22;36061;48.116;11.612;2022-09-12T00:41:31;12.40;99.90
50162;DHT22;36061;48.116;11.612;2022-09-12T00:44:38;12.30;99.90
50162;DHT22;36061;48.116;11.612;2022-09-12T00:52:28;12.40;99.90
50162;DHT22;36061;48.116;11.612;2022-09-12T00:55:25;12.40;99.90
50162;DHT22;36061;48.116;11.612;2022-09-12T00:58:16;12.40;99.90
50162;DHT22;36061;48.116;11.612;2022-09-12T01:00:43;12.40;99.90
50162;DHT22;36061;48.116;11.612;2022-09-12T01:03:11;12.40;99.90
50162;DHT22;36061;48.116;11.612;2022-09-12T01:05:45;12.30;99.90
50162;DHT22;36061;48.116;11.612;2022-09-12T01:08:12;12.20;99.90
50162;DHT22;36061;48.116;11.612;2022-09-12T01:10:39;12.20;99.90
50162;DHT22;36061;48.116;11.612;2022-09-12T01:13:07;12.20;99.90
50162;DHT22;36061;48.116;11.612;2022-09-12T01:15:35;12.10;99.90
50162;DHT22;36061;48.116;11.612;2022-09-12T01:29:40;12.00;99.90
50162;DHT22;36061;48.116;11.612;2022-09-12T01:32:23;12.00;99.90
50162;DHT22;36061;48.116;11.612;2022-09-12T01:35:20;12.00;99.90
50162;DHT22;36061;48.116;11.612;2022-09-12T01:40:44;11.90;99.90
50162;DHT22;36061;48.116;11.612;2022-09-12T01:43:35;11.90;99.90
50162;DHT22;36061;48.116;11.612;2022-09-12T01:48:59;11.90;99.90
50162;DHT22;36061;48.116;11.612;2022-09-12T01:51:33;11.90;99.90
50162;DHT22;36061;48.116;11.612;2022-09-12T01:54:15;11.80;99.90
50162;DHT22;36061;48.116;11.612;2022-09-12T01:56:43;11.80;99.90
50162;DHT22;36061;48.116;11.612;2022-09-12T01:59:19;11.90;99.90
50162;DHT22;36061;48.116;11.612;2022-09-12T02:02:03;11.90;99.90
50162;DHT22;36061;48.116;11.612;2022-09-12T02:04:38;11.90;99.90
50162;DHT22;36061;48.116;11.612;2022-09-12T02:07:18;11.90;99.90
50162;DHT22;36061;48.116;11.612;2022-09-12T02:09:52;11.90;99.90
50162;DHT22;36061;48.116;11.612;2022-09-12T02:12:23;11.90;99.90
50162;DHT22;36061;48.116;11.612;2022-09-12T02:14:54;11.90;99.90
50162;DHT22;36061;48.116;11.612;2022-09-12T02:17:23;11.90;99.90
50162;DHT22;36061;48.116;11.612;2022-09-12T02:19:57;11.90;99.90
50162;DHT22;36061;48.116;11.612;2022-09-12T02:22:26;11.90;99.90
50162;DHT22;36061;48.116;11.612;2022-09-12T02:24:56;11.80;99.90
50162;DHT22;36061;48.116;11.612;2022-09-12T02:27:32;11.80;99.90
50162;DHT22;36061;48.116;11.612;2022-09-12T02:30:03;11.80;99.90
50162;DHT22;36061;48.116;11.612;2022-09-12T02:32:55;11.70;99.90
50162;DHT22;36061;48.116;11.612;2022-09-12T02:40:32;11.50;99.90
50162;DHT22;36061;48.116;11.612;2022-09-12T02:43:00;11.50;99.90
50162;DHT22;36061;48.116;11.612;2022-09-12T02:45:26;11.50;99.90
50162;DHT22;36061;48.116;11.612;2022-09-12T02:48:17;11.50;99.90
50162;DHT22;36061;48.116;11.612;2022-09-12T02:50:44;11.50;99.90
50162;DHT22;36061;48.116;11.612;2022-09-12T02:53:11;11.50;99.90
50162;DHT22;36061;48.116;11.612;2022-09-12T02:55:38;11.60;99.90
50162;DHT22;36061;48.116;11.612;2022-09-12T02:58:07;11.60;99.90
50162;DHT22;36061;48.116;11.612;2022-09-12T03:06:01;11.50;99.90
50162;DHT22;36061;48.116;11.612;2022-09-12T03:08:49;11.50;99.90
50162;DHT22;36061;48.116;11.612;2022-09-12T03:23:08;11.30;99.90
50162;DHT22;36061;48.116;11.612;2022-09-12T03:25:42;11.30;99.90
50162;DHT22;36061;48.116;11.612;2022-09-12T03:28:12;11.30;99.90
50162;DHT22;36061;48.116;11.612;2022-09-12T03:30:42;11.30;99.90
50162;DHT22;36061;48.116;11.612;2022-09-12T03:33:17;11.30;99.90
50162;DHT22;36061;48.116;11.612;2022-09-12T03:35:44;11.30;99.90
50162;DHT22;36061;48.116;11.612;2022-09-12T03:38:10;11.30;99.90
50162;DHT22;36061;48.116;11.612;2022-09-12T03:40:37;11.30;99.90
50162;DHT22;36061;48.116;11.612;2022-09-12T03:43:04;11.30;99.90
50162;DHT22;36061;48.116;11.612;2022-09-12T03:45:30;11.30;99.90
50162;DHT22;36061;48.116;11.612;2022-09-12T03:47:56;11.30;99.90
50162;DHT22;36061;48.116;11.612;2022-09-12T03:50:22;11.20;99.90
50162;DHT22;36061;48.116;11.612;2022-09-12T03:52:48;11.20;99.90
50162;DHT22;36061;48.116;11.612;2022-09-12T03:55:14;11.20;99.90
50162;DHT22;36061;48.116;11.612;2022-09-12T03:57:40;11.20;99.90
50162;DHT22;36061;48.116;11.612;2022-09-12T04:00:07;11.20;99.90
50162;DHT22;36061;48.116;11.612;2022-09-12T04:02:38;11.20;99.90
50162;DHT22;36061;48.116;11.612;2022-09-12T04:05:04;11.20;99.90
50162;DHT22;36061;48.116;11.612;2022-09-12T04:07:30;11.20;99.90
50162;DHT22;36061;48.116;11.612;2022-09-12T04:09:56;11.20;99.90
50162;DHT22;36061;48.116;11.612;2022-09-12T04:12:22;11.10;99.90
50162;DHT22;36061;48.116;11.612;2022-09-12T04:14:48;11.10;99.90
50162;DHT22;36061;48.116;11.612;2022-09-12T04:17:14;11.10;99.90
50162;DHT22;36061;48.116;11.612;2022-09-12T04:19:40;11.10;99.90
50162;DHT22;36061;48.116;11.612;2022-09-12T04:22:05;11.10;99.90
50162;DHT22;36061;48.116;11.612;2022-09-12T04:24:31;11.10;99.90
50162;DHT22;36061;48.116;11.612;2022-09-12T04:26:57;11.10;99.90
50162;DHT22;36061;48.116;11.612;2022-09-12T04:29:23;11.10;99.90
50162;DHT22;36061;48.116;11.612;2022-09-12T04:31:49;11.00;99.90
50162;DHT22;36061;48.116;11.612;2022-09-12T04:34:14;11.00;99.90
50162;DHT22;36061;48.116;11.612;2022-09-12T04:36:40;11.00;99.90
50162;DHT22;36061;48.116;11.612;2022-09-12T04:39:07;11.00;99.90
50162;DHT22;36061;48.116;11.612;2022-09-12T04:41:34;11.00;99.90
50162;DHT22;36061;48.116;11.612;2022-09-12T04:44:11;11.00;99.90
50162;DHT22;36061;48.116;11.612;2022-09-12T04:46:40;11.00;99.90
50162;DHT22;36061;48.116;11.612;2022-09-12T04:49:06;11.00;99.90
50162;DHT22;36061;48.116;11.612;2022-09-12T04:51:34;11.00;99.90
50162;DHT22;36061;48.116;11.612;2022-09-12T04:54:04;10.90;99.90
50162;DHT22;36061;48.116;11.612;2022-09-12T04:56:31;10.90;99.90
50162;DHT22;36061;48.116;11.612;2022-09-12T04:58:59;10.90;99.90
50162;DHT22;36061;48.116;11.612;2022-09-12T05:01:27;10.90;99.90
50162;DHT22;36061;48.116;11.612;2022-09-12T05:03:55;10.90;99.90
50162;DHT22;36061;48.116;11.612;2022-09-12T05:06:23;10.80;99.90
50162;DHT22;36061;48.116;11.612;2022-09-12T05:08:50;10.80;99.90
50162;DHT22;36061;48.116;11.612;2022-09-12T05:11:19;10.90;99.90
50162;DHT22;36061;48.116;11.612;2022-09-12T05:13:45;10.90;99.90
50162;DHT22;36061;48.116;11.612;2022-09-12T05:16:13;10.90;99.90
50162;DHT22;36061;48.116;11.612;2022-09-12T05:18:40;10.90;99.90
50162;DHT22;36061;48.116;11.612;2022-09-12T05:21:08;10.90;99.90
50162;DHT22;36061;48.116;11.612;2022-09-12T05:23:34;10.90;99.90
50162;DHT22;36061;48.116;11.612;2022-09-12T05:26:01;10.90;99.90
50162;DHT22;36061;48.116;11.612;2022-09-12T05:28:30;10.90;99.90
50162;DHT22;36061;48.116;11.612;2022-09-12T05:31:10;10.90;99.90
50162;DHT22;36061;48.116;11.612;2022-09-12T05:33:37;10.90;99.90
50162;DHT22;36061;48.116;11.612;2022-09-12T05:36:05;10.90;99.90
50162;DHT22;36061;48.116;11.612;2022-09-12T05:38:33;10.90;99.90
50162;DHT22;36061;48.116;11.612;2022-09-12T05:41:14;10.90;99.90
50162;DHT22;36061;48.116;11.612;2022-09-12T05:43:41;11.00;99.90
50162;DHT22;36061;48.116;11.612;2022-09-12T05:46:13;11.00;99.90
50162;DHT22;36061;48.116;11.612;2022-09-12T05:48:41;11.00;99.90
50162;DHT22;36061;48.116;11.612;2022-09-12T05:51:10;11.10;99.90
50162;DHT22;36061;48.116;11.612;2022-09-12T05:53:37;11.10;99.90
50162;DHT22;36061;48.116;11.612;2022-09-12T05:56:12;11.20;99.90
50162;DHT22;36061;48.116;11.612;2022-09-12T05:58:41;11.20;99.90
50162;DHT22;36061;48.116;11.612;2022-09-12T06:01:09;11.30;99.90
50162;DHT22;36061;48.116;11.612;2022-09-12T06:03:45;11.30;99.90
50162;DHT22;36061;48.116;11.612;2022-09-12T06:06:11;11.40;99.90
50162;DHT22;36061;48.116;11.612;2022-09-12T06:08:42;11.60;99.90
50162;DHT22;36061;48.116;11.612;2022-09-12T06:11:11;11.80;99.90
50162;DHT22;36061;48.116;11.612;2022-09-12T06:13:38;12.20;99.90
50162;DHT22;36061;48.116;11.612;2022-09-12T06:16:15;12.60;99.90
50162;DHT22;36061;48.116;11.612;2022-09-12T06:18:45;13.10;99.90
50162;DHT22;36061;48.116;11.612;2022-09-12T06:21:11;13.70;99.90
50162;DHT22;36061;48.116;11.612;2022-09-12T06:23:38;14.30;99.90
50162;DHT22;36061;48.116;11.612;2022-09-12T06:26:06;14.70;99.90
50162;DHT22;36061;48.116;11.612;2022-09-12T06:28:38;15.00;99.90
50162;DHT22;36061;48.116;11.612;2022-09-12T06:31:08;15.10;99.90
50162;DHT22;36061;48.116;11.612;2022-09-12T06:33:37;15.20;99.90
50162;DHT22;36061;48.116;11.612;2022-09-12T06:36:09;15.30;99.90
50162;DHT22;36061;48.116;11.612;2022-09-12T06:38:35;15.40;99.90
50162;DHT22;36061;48.116;11.612;2022-09-12T06:41:11;15.30;99.90
50162;DHT22;36061;48.116;11.612;2022-09-12T06:43:39;15.10;99.90
50162;DHT22;36061;48.116;11.612;2022-09-12T06:46:05;14.80;99.90
50162;DHT22;36061;48.116;11.612;2022-09-12T06:48:32;14.60;99.90
50162;DHT22;36061;48.116;11.612;2022-09-12T06:51:06;14.50;99.90
50162;DHT22;36061;48.116;11.612;2022-09-12T06:53:32;14.30;99.90
50162;DHT22;36061;48.116;11.612;2022-09-12T06:56:00;14.20;99.90
50162;DHT22;36061;48.116;11.612;2022-09-12T06:58:27;14.20;99.90
50162;DHT22;36061;48.116;11.612;2022-09-12T07:01:10;14.10;99.90
50162;DHT22;36061;48.116;11.612;2022-09-12T07:03:38;14.10;99.90
50162;DHT22;36061;48.116;11.612;2022-09-12T07:06:11;14.10;99.90
50162;DHT22;36061;48.116;11.612;2022-09-12T07:08:38;14.10;99.90
50162;DHT22;36061;48.116;11.612;2022-09-12T07:11:10;14.10;99.90
50162;DHT22;36061;48.116;11.612;2022-09-12T07:13:37;14.10;99.90
50162;DHT22;36061;48.116;11.612;2022-09-12T07:16:04;14.20;99.90
50162;DHT22;36061;48.116;11.612;2022-09-12T07:18:33;14.30;99.90
50162;DHT22;36061;48.116;11.612;2022-09-12T07:21:00;14.30;99.90
50162;DHT22;36061;48.116;11.612;2022-09-12T07:23:27;14.40;99.90
50162;DHT22;36061;48.116;11.612;2022-09-12T07:25:58;14.40;99.90
50162;DHT22;36061;48.116;11.612;2022-09-12T07:28:25;14.50;99.90
50162;DHT22;36061;48.116;11.612;2022-09-12T07:30:51;14.60;99.90
50162;DHT22;36061;48.116;11.612;2022-09-12T07:33:27;14.70;99.90
50162;DHT22;36061;48.116;11.612;2022-09-12T07:35:53;14.80;99.90
50162;DHT22;36061;48.116;11.612;2022-09-12T07:38:20;14.80;99.90
50162;DHT22;36061;48.116;11.612;2022-09-12T07:40:46;14.90;99.90
50162;DHT22;36061;48.116;11.612;2022-09-12T07:43:12;14.90;99.90
50162;DHT22;36061;48.116;11.612;2022-09-12T07:45:38;14.90;99.90
50162;DHT22;36061;48.116;11.612;2022-09-12T07:48:07;15.00;99.90
50162;DHT22;36061;48.116;11.612;2022-09-12T07:50:33;15.10;99.90
50162;DHT22;36061;48.116;11.612;2022-09-12T07:52:59;15.10;99.90
50162;DHT22;36061;48.116;11.612;2022-09-12T07:55:25;15.20;99.90
50162;DHT22;36061;48.116;11.612;2022-09-12T07:57:51;15.30;99.90
50162;DHT22;36061;48.116;11.612;2022-09-12T08:00:17;15.40;99.90
50162;DHT22;36061;48.116;11.612;2022-09-12T08:02:43;15.50;99.90
50162;DHT22;36061;48.116;11.612;2022-09-12T08:05:09;15.60;99.90
50162;DHT22;36061;48.116;11.612;2022-09-12T08:07:35;15.70;99.90
50162;DHT22;36061;48.116;11.612;2022-09-12T08:10:01;15.80;99.90
50162;DHT22;36061;48.116;11.612;2022-09-12T08:12:27;15.80;99.90
50162;DHT22;36061;48.116;11.612;2022-09-12T08:14:53;15.90;99.90
50162;DHT22;36061;48.116;11.612;2022-09-12T08:17:19;16.00;99.90
50162;DHT22;36061;48.116;11.612;2022-09-12T08:19:44;16.10;99.90
50162;DHT22;36061;48.116;11.612;2022-09-12T08:22:11;16.20;99.90
50162;DHT22;36061;48.116;11.612;2022-09-12T08:24:37;16.30;99.90
50162;DHT22;36061;48.116;11.612;2022-09-12T08:27:05;16.40;99.90
50162;DHT22;36061;48.116;11.612;2022-09-12T08:29:31;16.50;99.90
50162;DHT22;36061;48.116;11.612;2022-09-12T08:31:56;16.60;99.90
50162;DHT22;36061;48.116;11.612;2022-09-12T08:34:22;16.70;99.90
50162;DHT22;36061;48.116;11.612;2022-09-12T08:36:49;16.80;99.90
50162;DHT22;36061;48.116;11.612;2022-09-12T08:39:15;16.90;99.90
50162;DHT22;36061;48.116;11.612;2022-09-12T08:41:45;17.00;99.90
50162;DHT22;36061;48.116;11.612;2022-09-12T08:47:31;17.10;99.90
50162;DHT22;36061;48.116;11.612;2022-09-12T08:52:53;17.30;99.90
50162;DHT22;36061;48.116;11.612;2022-09-12T08:57:52;17.30;99.90
50162;DHT22;36061;48.116;11.612;2022-09-12T09:00:19;17.30;99.90
50162;DHT22;36061;48.116;11.612;2022-09-12T09:05:55;17.30;99.90
50162;DHT22;36061;48.116;11.612;2022-09-12T09:08:34;17.30;99.90
50162;DHT22;36061;48.116;11.612;2022-09-12T09:14:13;17.30;99.90
50162;DHT22;36061;48.116;11.612;2022-09-12T09:16:59;17.30;99.90
50162;DHT22;36061;48.116;11.612;2022-09-12T09:19:39;17.40;99.90
50162;DHT22;36061;48.116;11.612;2022-09-12T09:22:30;17.30;99.90
50162;DHT22;36061;48.116;11.612;2022-09-12T09:25:04;17.40;99.90
50162;DHT22;36061;48.116;11.612;2022-09-12T09:27:42;17.40;99.90
50162;DHT22;36061;48.116;11.612;2022-09-12T09:30:16;17.40;99.90
50162;DHT22;36061;48.116;11.612;2022-09-12T09:32:46;17.40;99.90
50162;DHT22;36061;48.116;11.612;2022-09-12T09:41:26;17.50;99.90
50162;DHT22;36061;48.116;11.612;2022-09-12T09:43:55;17.60;99.90
50162;DHT22;36061;48.116;11.612;2022-09-12T09:46:22;17.60;99.90
50162;DHT22;36061;48.116;11.612;2022-09-12T09:48:49;17.70;99.90
50162;DHT22;36061;48.116;11.612;2022-09-12T09:51:24;17.70;99.90
50162;DHT22;36061;48.116;11.612;2022-09-12T09:53:54;17.70;99.90
50162;DHT22;36061;48.116;11.612;2022-09-12T09:58:47;17.80;99.90
50162;DHT22;36061;48.116;11.612;2022-09-12T10:01:15;17.90;99.90
50162;DHT22;36061;48.116;11.612;2022-09-12T10:03:50;17.90;99.90
50162;DHT22;36061;48.116;11.612;2022-09-12T10:06:28;18.00;99.90
50162;DHT22;36061;48.116;11.612;2022-09-12T10:11:38;18.20;99.90
50162;DHT22;36061;48.116;11.612;2022-09-12T10:14:04;18.20;99.90
50162;DHT22;36061;48.116;11.612;2022-09-12T10:16:46;18.30;99.90
50162;DHT22;36061;48.116;11.612;2022-09-12T10:19:20;18.30;99.90
50162;DHT22;36061;48.116;11.612;2022-09-12T10:21:53;18.30;99.90
50162;DHT22;36061;48.116;11.612;2022-09-12T10:29:44;18.40;99.90
50162;DHT22;36061;48.116;11.612;2022-09-12T10:32:25;18.40;99.90
50162;DHT22;36061;48.116;11.612;2022-09-12T10:34:57;18.50;99.90
50162;DHT22;36061;48.116;11.612;2022-09-12T10:37:25;18.50;99.90
50162;DHT22;36061;48.116;11.612;2022-09-12T10:39:55;18.50;99.90
50162;DHT22;36061;48.116;11.612;2022-09-12T10:42:43;18.60;99.90
50162;DHT22;36061;48.116;11.612;2022-09-12T10:47:47;18.60;99.90
50162;DHT22;36061;48.116;11.612;2022-09-12T10:50:24;18.60;99.90
50162;DHT22;36061;48.116;11.612;2022-09-12T11:01:48;18.70;99.90
50162;DHT22;36061;48.116;11.612;2022-09-12T11:04:52;18.80;99.90
50162;DHT22;36061;48.116;11.612;2022-09-12T11:12:52;18.80;99.90
50162;DHT22;36061;48.116;11.612;2022-09-12T11:32:10;18.90;99.90
50162;DHT22;36061;48.116;11.612;2022-09-12T11:43:06;19.10;99.90
50162;DHT22;36061;48.116;11.612;2022-09-12T11:45:40;19.10;99.90
50162;DHT22;36061;48.116;11.612;2022-09-12T11:48:13;19.10;99.90
50162;DHT22;36061;48.116;11.612;2022-09-12T11:50:40;19.10;99.90
50162;DHT22;36061;48.116;11.612;2022-09-12T11:53:29;19.10;99.90
50162;DHT22;36061;48.116;11.612;2022-09-12T11:56:16;19.10;99.90
50162;DHT22;36061;48.116;11.612;2022-09-12T11:58:48;19.10;99.90
50162;DHT22;36061;48.116;11.612;2022-09-12T12:01:24;19.20;99.90
50162;DHT22;36061;48.116;11.612;2022-09-12T12:03:50;19.20;99.90
50162;DHT22;36061;48.116;11.612;2022-09-12T12:06:30;19.10;99.90
50162;DHT22;36061;48.116;11.612;2022-09-12T12:08:57;19.20;99.90
50162;DHT22;36061;48.116;11.612;2022-09-12T12:11:39;19.30;99.90
50162;DHT22;36061;48.116;11.612;2022-09-12T12:14:19;19.40;99.90
50162;DHT22;36061;48.116;11.612;2022-09-12T12:16:47;19.40;99.90
50162;DHT22;36061;48.116;11.612;2022-09-12T12:21:44;19.30;99.90
50162;DHT22;36061;48.116;11.612;2022-09-12T12:24:15;19.30;99.90
50162;DHT22;36061;48.116;11.612;2022-09-12T12:37:25;19.60;99.70
50162;DHT22;36061;48.116;11.612;2022-09-12T12:55:29;19.60;99.00
50162;DHT22;36061;48.116;11.612;2022-09-12T12:58:03;19.70;99.00
50162;DHT22;36061;48.116;11.612;2022-09-12T13:00:38;19.80;98.30
50162;DHT22;36061;48.116;11.612;2022-09-12T13:05:47;19.80;98.50
50162;DHT22;36061;48.116;11.612;2022-09-12T13:11:26;19.80;98.20
50162;DHT22;36061;48.116;11.612;2022-09-12T13:13:58;19.80;98.20
50162;DHT22;36061;48.116;11.612;2022-09-12T13:16:34;19.90;97.70
50162;DHT22;36061;48.116;11.612;2022-09-12T13:19:11;19.90;97.80
50162;DHT22;36061;48.116;11.612;2022-09-12T13:21:38;19.90;97.20
50162;DHT22;36061;48.116;11.612;2022-09-12T13:24:14;19.90;97.50
50162;DHT22;36061;48.116;11.612;2022-09-12T13:26:43;19.90;97.60
50162;DHT22;36061;48.116;11.612;2022-09-12T13:29:15;20.00;97.40
50162;DHT22;36061;48.116;11.612;2022-09-12T13:31:42;20.00;97.50
50162;DHT22;36061;48.116;11.612;2022-09-12T13:34:09;20.00;97.60
50162;DHT22;36061;48.116;11.612;2022-09-12T13:39:28;20.10;97.30
50162;DHT22;36061;48.116;11.612;2022-09-12T13:42:49;20.10;97.20
50162;DHT22;36061;48.116;11.612;2022-09-12T13:45:20;20.10;96.90
50162;DHT22;36061;48.116;11.612;2022-09-12T13:47:49;20.20;97.10
50162;DHT22;36061;48.116;11.612;2022-09-12T13:50:24;20.20;97.20
50162;DHT22;36061;48.116;11.612;2022-09-12T13:53:03;20.20;97.00
50162;DHT22;36061;48.116;11.612;2022-09-12T13:55:31;20.20;96.30
50162;DHT22;36061;48.116;11.612;2022-09-12T13:58:05;20.30;96.70
50162;DHT22;36061;48.116;11.612;2022-09-12T14:00:32;20.20;97.10
50162;DHT22;36061;48.116;11.612;2022-09-12T14:03:00;20.30;97.10
50162;DHT22;36061;48.116;11.612;2022-09-12T14:05:53;20.40;96.80
50162;DHT22;36061;48.116;11.612;2022-09-12T14:08:20;20.30;96.60
50162;DHT22;36061;48.116;11.612;2022-09-12T14:10:49;20.30;96.60
50162;DHT22;36061;48.116;11.612;2022-09-12T14:13:20;20.30;96.00
50162;DHT22;36061;48.116;11.612;2022-09-12T14:15:49;20.30;95.90
50162;DHT22;36061;48.116;11.612;2022-09-12T14:18:22;20.30;95.70
50162;DHT22;36061;48.116;11.612;2022-09-12T14:20:49;20.20;96.10
50162;DHT22;36061;48.116;11.612;2022-09-12T14:23:27;20.30;96.20
50162;DHT22;36061;48.116;11.612;2022-09-12T14:25:55;20.20;96.40
50162;DHT22;36061;48.116;11.612;2022-09-12T14:28:24;20.20;96.30
50162;DHT22;36061;48.116;11.612;2022-09-12T14:33:23;20.20;96.50
50162;DHT22;36061;48.116;11.612;2022-09-12T14:35:51;20.30;96.90
50162;DHT22;36061;48.116;11.612;2022-09-12T14:38:32;20.30;96.60
50162;DHT22;36061;48.116;11.612;2022-09-12T14:41:02;20.30;96.50
50162;DHT22;36061;48.116;11.612;2022-09-12T14:43:43;20.20;96.20
50162;DHT22;36061;48.116;11.612;2022-09-12T14:46:26;20.20;96.40
50162;DHT22;36061;48.116;11.612;2022-09-12T14:49:14;20.10;96.50
50162;DHT22;36061;48.116;11.612;2022-09-12T14:56:58;20.10;96.70
50162;DHT22;36061;48.116;11.612;2022-09-12T15:02:20;20.10;96.50
50162;DHT22;36061;48.116;11.612;2022-09-12T15:04:47;20.00;96.80
50162;DHT22;36061;48.116;11.612;2022-09-12T15:07:37;20.00;97.10
50162;DHT22;36061;48.116;11.612;2022-09-12T15:10:56;20.00;96.90
50162;DHT22;36061;48.116;11.612;2022-09-12T15:15:34;19.90;96.90
50162;DHT22;36061;48.116;11.612;2022-09-12T15:18:00;19.90;96.50
50162;DHT22;36061;48.116;11.612;2022-09-12T15:20:25;19.90;96.60
50162;DHT22;36061;48.116;11.612;2022-09-12T15:22:52;19.90;96.70
50162;DHT22;36061;48.116;11.612;2022-09-12T15:25:18;19.90;96.70
50162;DHT22;36061;48.116;11.612;2022-09-12T15:27:49;19.90;96.40
50162;DHT22;36061;48.116;11.612;2022-09-12T15:30:16;20.00;96.40
50162;DHT22;36061;48.116;11.612;2022-09-12T15:32:43;20.00;96.70
50162;DHT22;36061;48.116;11.612;2022-09-12T15:35:16;20.00;96.50
50162;DHT22;36061;48.116;11.612;2022-09-12T15:37:42;20.00;96.30
50162;DHT22;36061;48.116;11.612;2022-09-12T15:40:09;20.10;96.20
50162;DHT22;36061;48.116;11.612;2022-09-12T15:42:36;20.00;96.10
50162;DHT22;36061;48.116;11.612;2022-09-12T15:45:04;20.00;96.10
50162;DHT22;36061;48.116;11.612;2022-09-12T15:47:35;20.00;96.40
50162;DHT22;36061;48.116;11.612;2022-09-12T15:50:01;20.00;96.20
50162;DHT22;36061;48.116;11.612;2022-09-12T15:52:27;20.00;96.30
50162;DHT22;36061;48.116;11.612;2022-09-12T15:54:53;20.10;96.00
50162;DHT22;36061;48.116;11.612;2022-09-12T15:57:18;20.00;96.10
50162;DHT22;36061;48.116;11.612;2022-09-12T15:59:44;20.10;96.10
50162;DHT22;36061;48.116;11.612;2022-09-12T16:02:10;20.10;96.10
50162;DHT22;36061;48.116;11.612;2022-09-12T16:04:36;20.10;96.30
50162;DHT22;36061;48.116;11.612;2022-09-12T16:07:02;20.10;96.50
50162;DHT22;36061;48.116;11.612;2022-09-12T16:09:28;20.00;96.40
50162;DHT22;36061;48.116;11.612;2022-09-12T16:11:54;20.00;96.50
50162;DHT22;36061;48.116;11.612;2022-09-12T16:14:20;19.90;96.70
50162;DHT22;36061;48.116;11.612;2022-09-12T16:16:51;19.90;96.30
50162;DHT22;36061;48.116;11.612;2022-09-12T16:19:18;19.90;96.50
50162;DHT22;36061;48.116;11.612;2022-09-12T16:21:44;19.80;96.60
50162;DHT22;36061;48.116;11.612;2022-09-12T16:24:10;19.80;96.90
50162;DHT22;36061;48.116;11.612;2022-09-12T16:26:36;19.80;97.30
50162;DHT22;36061;48.116;11.612;2022-09-12T16:29:02;19.80;97.30
50162;DHT22;36061;48.116;11.612;2022-09-12T16:31:28;19.80;97.20
50162;DHT22;36061;48.116;11.612;2022-09-12T16:33:54;19.80;97.40
50162;DHT22;36061;48.116;11.612;2022-09-12T16:36:21;19.70;97.60
50162;DHT22;36061;48.116;11.612;2022-09-12T16:38:49;19.70;97.90
50162;DHT22;36061;48.116;11.612;2022-09-12T16:41:17;19.70;98.10
50162;DHT22;36061;48.116;11.612;2022-09-12T16:43:44;19.60;98.20
50162;DHT22;36061;48.116;11.612;2022-09-12T16:46:13;19.60;98.60
50162;DHT22;36061;48.116;11.612;2022-09-12T16:48:47;19.60;98.40
50162;DHT22;36061;48.116;11.612;2022-09-12T16:51:15;19.60;98.60
50162;DHT22;36061;48.116;11.612;2022-09-12T16:53:41;19.50;98.70
50162;DHT22;36061;48.116;11.612;2022-09-12T16:56:08;19.50;99.20
50162;DHT22;36061;48.116;11.612;2022-09-12T16:58:36;19.40;98.90
50162;DHT22;36061;48.116;11.612;2022-09-12T17:03:33;19.30;99.00
50162;DHT22;36061;48.116;11.612;2022-09-12T17:06:05;19.20;99.10
50162;DHT22;36061;48.116;11.612;2022-09-12T17:08:33;19.10;99.40
50162;DHT22;36061;48.116;11.612;2022-09-12T17:11:07;19.20;99.70
50162;DHT22;36061;48.116;11.612;2022-09-12T17:13:33;19.10;99.80
50162;DHT22;36061;48.116;11.612;2022-09-12T17:16:03;19.10;99.90
50162;DHT22;36061;48.116;11.612;2022-09-12T17:18:29;19.00;99.90
50162;DHT22;36061;48.116;11.612;2022-09-12T17:20:55;18.90;99.90
50162;DHT22;36061;48.116;11.612;2022-09-12T17:23:20;18.90;99.90
50162;DHT22;36061;48.116;11.612;2022-09-12T17:25:47;18.80;99.90
50162;DHT22;36061;48.116;11.612;2022-09-12T17:28:14;18.70;99.90
50162;DHT22;36061;48.116;11.612;2022-09-12T17:30:39;18.70;99.90
50162;DHT22;36061;48.116;11.612;2022-09-12T17:33:06;18.60;99.90
50162;DHT22;36061;48.116;11.612;2022-09-12T17:35:36;18.50;99.90
50162;DHT22;36061;48.116;11.612;2022-09-12T17:38:03;18.50;99.90
50162;DHT22;36061;48.116;11.612;2022-09-12T17:40:29;18.40;99.90
50162;DHT22;36061;48.116;11.612;2022-09-12T17:42:56;18.40;99.90
50162;DHT22;36061;48.116;11.612;2022-09-12T17:45:22;18.30;99.90
50162;DHT22;36061;48.116;11.612;2022-09-12T17:47:48;18.30;99.90
50162;DHT22;36061;48.116;11.612;2022-09-12T17:50:14;18.30;99.90
50162;DHT22;36061;48.116;11.612;2022-09-12T17:52:44;18.20;99.90
50162;DHT22;36061;48.116;11.612;2022-09-12T17:55:10;18.20;99.90
50162;DHT22;36061;48.116;11.612;2022-09-12T17:57:37;18.10;99.90
50162;DHT22;36061;48.116;11.612;2022-09-12T18:00:04;18.10;99.90
50162;DHT22;36061;48.116;11.612;2022-09-12T18:02:37;18.00;99.90
50162;DHT22;36061;48.116;11.612;2022-09-12T18:05:03;18.00;99.90
50162;DHT22;36061;48.116;11.612;2022-09-12T18:07:30;17.90;99.90
50162;DHT22;36061;48.116;11.612;2022-09-12T18:09:56;17.90;99.90
50162;DHT22;36061;48.116;11.612;2022-09-12T18:12:23;17.90;99.90
50162;DHT22;36061;48.116;11.612;2022-09-12T18:14:49;17.80;99.90
50162;DHT22;36061;48.116;11.612;2022-09-12T18:17:15;17.80;99.90
50162;DHT22;36061;48.116;11.612;2022-09-12T18:19:41;17.70;99.90
50162;DHT22;36061;48.116;11.612;2022-09-12T18:22:07;17.70;99.90
50162;DHT22;36061;48.116;11.612;2022-09-12T18:24:34;17.70;99.90